Time;durP1;ratioP1;P1;durP2;ratioP2;P2;SDS_P1;SDS_P2;PMS_P1;PMS_P2;Temp;Humidity;BMP_temperature;BMP_pressure;BME280_temperature;BME280_humidity;BME280_pressure;Samples;Min_cycle;Max_cycle;Signal;HPM_P1;HPM_P2
2022/06/01 00:04:11;;;;;;;47.20;32.72;;;;;;;6.07;100.00;101212.09;10515620;28;20444;-74
2022/06/01 00:09:12;;;;;;;56.42;39.97;;;;;;;5.96;100.00;101206.13;10483982;28;20127;-74
2022/06/01 00:14:14;;;;;;;55.22;41.05;;;;;;;5.95;100.00;101206.91;10495769;28;20399;-76
2022/06/01 00:19:14;;;;;;;62.53;44.70;;;;;;;5.93;100.00;101212.78;10496439;28;20048;-74
2022/06/01 00:24:15;;;;;;;58.20;40.05;;;;;;;5.83;100.00;101209.50;10473330;28;20059;-74
2022/06/01 00:29:15;;;;;;;55.05;40.53;;;;;;;5.84;100.00;101195.72;10486720;28;20037;-74
2022/06/01 00:34:16;;;;;;;58.28;39.67;;;;;;;5.83;100.00;101204.31;10511698;28;20029;-75
2022/06/01 00:39:16;;;;;;;51.05;37.35;;;;;;;5.77;100.00;101209.06;10497312;28;20029;-75
2022/06/01 00:44:17;;;;;;;44.03;35.25;;;;;;;5.68;100.00;101205.81;10493674;28;20052;-75
2022/06/01 00:49:20;;;;;;;45.53;36.95;;;;;;;5.55;100.00;101206.63;10464549;28;20112;-75
2022/06/01 00:54:20;;;;;;;46.45;36.55;;;;;;;5.41;100.00;101201.31;10490304;28;20033;-74
2022/06/01 00:59:22;;;;;;;48.65;36.78;;;;;;;5.34;100.00;101204.25;10464233;28;20158;-75
2022/06/01 01:04:23;;;;;;;51.13;37.08;;;;;;;5.20;100.00;101194.53;10508195;28;20479;-74
2022/06/01 01:09:23;;;;;;;52.40;37.80;;;;;;;5.07;100.00;101193.63;10521353;28;20024;-75
2022/06/01 01:14:26;;;;;;;51.60;37.95;;;;;;;5.14;100.00;101189.78;10480121;28;20476;-75
2022/06/01 01:19:35;;;;;;;60.45;44.63;;;;;;;5.18;100.00;101190.91;10497990;28;20151;-75
2022/06/01 01:25:06;;;;;;;67.38;43.25;;;;;;;5.13;100.00;101195.75;10507056;28;20148;-75
2022/06/01 01:30:23;;;;;;;73.03;46.67;;;;;;;5.16;100.00;101188.19;10520219;28;20041;-75
2022/06/01 01:35:24;;;;;;;64.53;42.70;;;;;;;5.10;100.00;101183.47;10488799;28;20044;-75
2022/06/01 01:40:25;;;;;;;68.13;45.70;;;;;;;5.04;100.00;101179.50;10501936;28;20192;-75
2022/06/01 01:45:28;;;;;;;63.97;45.40;;;;;;;5.05;100.00;101178.69;10501836;28;20040;-75
2022/06/01 01:50:28;;;;;;;69.65;48.40;;;;;;;4.97;100.00;101189.41;10471159;28;20044;-75
2022/06/01 01:55:49;;;;;;;69.40;45.28;;;;;;;4.96;100.00;101179.81;10489035;28;20548;-75
2022/06/01 02:00:53;;;;;;;68.75;47.25;;;;;;;4.92;100.00;101189.88;10483139;28;20105;-75
2022/06/01 02:06:04;;;;;;;70.93;48.55;;;;;;;4.98;100.00;101190.31;10512910;28;20391;-75
2022/06/01 02:16:25;;;;;;;75.40;51.85;;;;;;;4.99;100.00;101186.94;10522308;28;20043;-75
2022/06/01 02:21:27;;;;;;;79.57;53.90;;;;;;;5.04;100.00;101185.59;10493756;28;20052;-74
2022/06/01 02:26:28;;;;;;;79.68;53.25;;;;;;;5.13;100.00;101194.06;10505887;28;20119;-75
2022/06/01 02:31:29;;;;;;;75.40;49.50;;;;;;;5.14;100.00;101198.47;10488042;28;20044;-75
2022/06/01 02:36:30;;;;;;;76.93;49.35;;;;;;;5.12;100.00;101191.34;10470797;28;20044;-75
2022/06/01 02:46:50;;;;;;;86.05;56.25;;;;;;;5.34;100.00;101213.72;10488457;28;20032;-75
2022/06/01 02:51:50;;;;;;;69.53;49.63;;;;;;;5.37;100.00;101204.47;10482933;28;20143;-75
2022/06/01 02:56:51;;;;;;;73.57;49.75;;;;;;;5.41;100.00;101211.69;10527019;28;20058;-74
2022/06/01 03:01:51;;;;;;;77.30;54.65;;;;;;;5.45;100.00;101215.41;10513726;28;20042;-75
2022/06/01 03:06:53;;;;;;;79.45;55.38;;;;;;;5.53;100.00;101216.00;10500912;28;20041;-75
2022/06/01 03:11:54;;;;;;;77.80;49.70;;;;;;;5.57;100.00;101220.63;10490787;28;20373;-75
2022/06/01 03:16:55;;;;;;;75.35;51.80;;;;;;;5.55;100.00;101215.28;10483954;28;20120;-75
2022/06/01 03:21:56;;;;;;;75.10;50.83;;;;;;;5.51;100.00;101218.44;10492156;28;20039;-75
2022/06/01 03:26:56;;;;;;;71.85;47.47;;;;;;;5.36;100.00;101226.03;10483439;28;20841;-75
2022/06/01 03:31:58;;;;;;;69.88;46.75;;;;;;;5.34;100.00;101217.22;10488759;28;20098;-75
2022/06/01 03:36:58;;;;;;;75.72;49.90;;;;;;;5.25;100.00;101213.94;10488335;28;20046;-75
2022/06/01 03:41:59;;;;;;;62.42;44.10;;;;;;;5.24;100.00;101219.91;10475435;28;20033;-75
2022/06/01 03:47:03;;;;;;;70.10;46.53;;;;;;;5.24;100.00;101222.50;10467390;28;20036;-75
2022/06/01 03:52:04;;;;;;;68.43;44.95;;;;;;;5.17;100.00;101221.13;10496981;28;20044;-75
2022/06/01 03:57:05;;;;;;;65.03;43.70;;;;;;;5.12;100.00;101209.50;10486689;28;20040;-75
2022/06/01 04:02:06;;;;;;;69.15;44.67;;;;;;;5.09;100.00;101223.16;10490253;28;20036;-75
2022/06/01 04:07:06;;;;;;;73.90;47.42;;;;;;;5.11;100.00;101224.19;10475047;28;20063;-77
2022/06/01 04:12:07;;;;;;;61.40;44.38;;;;;;;5.23;100.00;101224.19;10474465;28;20147;-76
2022/06/01 04:17:08;;;;;;;66.72;44.35;;;;;;;5.37;100.00;101232.09;10485113;28;20036;-76
2022/06/01 04:22:08;;;;;;;71.32;44.90;;;;;;;5.48;100.00;101239.00;10511925;28;20511;-76
2022/06/01 04:27:09;;;;;;;64.32;45.30;;;;;;;5.77;100.00;101241.94;10508167;28;20131;-74
2022/06/01 04:32:14;;;;;;;61.22;42.63;;;;;;;6.19;100.00;101247.56;10484492;28;20044;-75
2022/06/01 04:37:14;;;;;;;57.75;40.15;;;;;;;6.34;100.00;101247.75;10473249;28;20477;-74
2022/06/01 04:42:15;;;;;;;57.95;37.33;;;;;;;6.47;100.00;101245.22;10518931;28;20064;-75
2022/06/01 04:47:16;;;;;;;49.95;34.22;;;;;;;6.44;100.00;101242.41;10478364;28;20040;-75
2022/06/01 04:52:16;;;;;;;46.88;31.80;;;;;;;6.46;100.00;101240.81;10483318;28;20040;-75
2022/06/01 04:57:17;;;;;;;45.83;31.95;;;;;;;6.45;100.00;101246.81;10482281;28;20115;-77
2022/06/01 05:02:19;;;;;;;35.30;25.42;;;;;;;6.99;100.00;101245.31;10491555;28;20037;-74
2022/06/01 05:07:19;;;;;;;31.80;24.48;;;;;;;7.52;100.00;101235.78;10494231;28;20124;-74
2022/06/01 05:12:20;;;;;;;28.02;19.42;;;;;;;8.19;100.00;101227.91;10499652;28;20036;-75
2022/06/01 05:17:21;;;;;;;17.98;15.43;;;;;;;9.01;100.00;101224.22;10494051;28;20483;-76
2022/06/01 05:22:21;;;;;;;16.83;13.80;;;;;;;10.39;100.00;101232.03;10528621;28;20059;-76
2022/06/01 05:27:23;;;;;;;12.57;9.93;;;;;;;11.70;89.31;101222.94;10515652;28;20113;-74
2022/06/01 05:32:23;;;;;;;12.10;9.00;;;;;;;12.54;83.27;101230.38;10525965;28;20045;-74
2022/06/01 05:37:24;;;;;;;8.68;7.57;;;;;;;13.39;72.93;101222.66;10488024;28;20120;-74
2022/06/01 05:42:24;;;;;;;12.45;7.15;;;;;;;13.81;70.21;101224.41;10509674;28;20040;-74
2022/06/01 05:47:25;;;;;;;9.88;6.65;;;;;;;13.84;67.26;101229.78;10504458;28;20528;-74
2022/06/01 05:52:25;;;;;;;10.73;7.32;;;;;;;13.92;69.59;101236.25;10510073;28;20128;-76
2022/06/01 05:57:26;;;;;;;11.85;6.43;;;;;;;14.46;66.95;101242.69;10496379;28;20158;-75
2022/06/01 06:02:27;;;;;;;9.55;6.68;;;;;;;14.90;66.23;101254.84;10500724;28;20127;-75
2022/06/01 06:07:27;;;;;;;8.45;5.57;;;;;;;15.32;64.09;101241.38;10528724;28;20130;-75
2022/06/01 06:12:28;;;;;;;8.98;7.22;;;;;;;15.15;66.62;101253.09;10512055;28;20464;-76
2022/06/01 06:17:28;;;;;;;6.50;5.22;;;;;;;16.22;60.43;101248.66;10486294;28;20040;-79
2022/06/01 06:22:29;;;;;;;14.80;5.85;;;;;;;15.90;62.80;101265.28;10515472;28;20130;-76
2022/06/01 06:27:33;;;;;;;11.65;6.40;;;;;;;16.53;61.95;101260.13;10488322;28;20047;-77
2022/06/01 06:32:33;;;;;;;8.18;5.05;;;;;;;17.16;58.36;101259.31;10472289;28;20036;-75
2022/06/01 06:37:34;;;;;;;8.95;4.68;;;;;;;17.14;57.59;101262.75;10453209;28;20033;-75
2022/06/01 06:42:35;;;;;;;10.18;4.97;;;;;;;17.22;58.52;101268.25;10480646;28;20135;-74
2022/06/01 06:47:35;;;;;;;9.75;6.47;;;;;;;17.77;57.23;101274.06;10479949;28;20538;-74
2022/06/01 06:52:36;;;;;;;9.30;5.30;;;;;;;18.89;53.90;101266.84;10499633;28;20055;-75
2022/06/01 06:57:36;;;;;;;13.20;7.77;;;;;;;18.95;54.32;101273.13;10476065;28;20089;-74
2022/06/01 07:02:37;;;;;;;9.27;6.23;;;;;;;18.88;53.58;101277.41;10483211;28;20539;-75
2022/06/01 07:07:37;;;;;;;15.07;8.77;;;;;;;18.24;53.95;101276.09;10478163;28;20052;-74
2022/06/01 07:12:38;;;;;;;9.57;5.85;;;;;;;17.42;57.38;101271.41;10482475;28;20123;-74
2022/06/01 07:17:39;;;;;;;11.52;6.10;;;;;;;17.40;58.81;101271.41;10484326;28;20036;-76
2022/06/01 07:22:39;;;;;;;12.20;5.82;;;;;;;18.11;55.67;101271.38;10505810;28;20491;-75
2022/06/01 07:27:40;;;;;;;9.52;4.97;;;;;;;18.38;56.54;101275.50;10500700;28;20036;-74
2022/06/01 07:32:44;;;;;;;9.93;5.95;;;;;;;17.71;56.46;101287.16;10486121;28;20050;-74
2022/06/01 07:43:06;;;;;;;11.50;6.68;;;;;;;19.20;55.64;101279.81;10476349;28;20506;-74
2022/06/01 07:48:07;;;;;;;12.70;6.03;;;;;;;18.15;54.47;101282.06;10480148;28;20082;-76
2022/06/01 07:53:08;;;;;;;8.83;4.67;;;;;;;19.73;52.88;101286.03;10472683;28;20044;-74
2022/06/01 07:58:09;;;;;;;14.90;4.63;;;;;;;20.12;50.08;101284.91;10465230;28;20484;-75
2022/06/01 08:03:11;;;;;;;10.53;5.83;;;;;;;21.47;47.32;101280.34;10483399;28;20044;-75
2022/06/01 08:08:11;;;;;;;9.07;4.65;;;;;;;21.97;46.65;101284.34;10476985;28;20148;-77
2022/06/01 08:13:13;;;;;;;7.10;4.97;;;;;;;21.70;47.18;101272.59;10491901;28;20561;-75
2022/06/01 08:18:19;;;;;;;6.68;4.97;;;;;;;20.13;48.25;101286.69;10494213;28;20037;-75
2022/06/01 08:23:21;;;;;;;12.02;5.05;;;;;;;18.00;53.21;101287.91;10484363;28;20125;-76
2022/06/01 08:28:22;;;;;;;;;;;;;;;19.85;50.40;101294.22;10493748;28;20072;-76
2022/06/01 08:33:23;;;;;;;10.43;5.10;;;;;;;20.38;48.23;101285.31;10497757;28;19943;-76
2022/06/01 08:38:24;;;;;;;10.48;5.22;;;;;;;18.64;52.48;101300.81;10446999;28;20610;-75
2022/06/01 08:43:26;;;;;;;8.27;4.25;;;;;;;21.76;46.44;101290.38;10486431;28;20195;-75
2022/06/01 08:48:53;;;;;;;4.47;2.80;;;;;;;23.78;40.22;101284.09;10473392;28;20066;-76
2022/06/01 08:53:54;;;;;;;4.13;2.17;;;;;;;22.20;42.18;101291.59;10472548;28;20045;-75
2022/06/01 08:59:28;;;;;;;7.27;3.40;;;;;;;22.99;40.95;101287.53;10472616;28;20024;-76
2022/06/01 09:04:44;;;;;;;6.82;2.47;;;;;;;23.78;39.45;101285.84;10490449;28;20079;-75
2022/06/01 09:10:12;;;;;;;5.90;2.10;;;;;;;22.23;41.06;101287.16;10488922;28;20040;-75
2022/06/01 09:15:21;;;;;;;4.15;2.20;;;;;;;21.74;41.92;101286.81;10532025;28;20036;-76
2022/06/01 09:25:50;;;;;;;5.60;2.60;;;;;;;19.93;44.38;101287.28;10488964;28;20032;-76
2022/06/01 09:31:02;;;;;;;8.85;2.72;;;;;;;19.15;46.82;101305.38;10435197;28;20507;-75
2022/06/01 09:36:06;;;;;;;5.50;2.97;;;;;;;18.48;49.11;101304.88;10447081;28;20040;-76
2022/06/01 09:41:08;;;;;;;9.65;3.25;;;;;;;18.12;49.27;101295.22;10448033;28;20033;-76
2022/06/01 09:46:09;;;;;;;6.80;3.60;;;;;;;18.17;49.69;101292.69;10445814;28;20086;-76
2022/06/01 09:51:16;;;;;;;7.15;3.53;;;;;;;18.14;48.35;101292.63;10412991;28;20033;-75
2022/06/01 09:56:31;;;;;;;6.28;3.33;;;;;;;20.05;45.52;101278.63;10437461;28;20045;-75
2022/06/01 10:06:56;;;;;;;8.20;2.80;;;;;;;18.19;46.43;101288.34;10529734;28;20040;-75
2022/06/01 10:11:56;;;;;;;7.22;3.05;;;;;;;19.58;47.47;101281.38;10471924;28;20086;-76
2022/06/01 10:17:06;;;;;;;6.15;2.50;;;;;;;20.01;44.63;101275.88;10427799;28;20036;-76
2022/06/01 10:22:15;;;;;;;4.03;2.30;;;;;;;21.39;40.47;101274.97;10485675;28;20395;-76
2022/06/01 10:27:17;;;;;;;3.83;1.80;;;;;;;20.34;42.67;101287.88;10527125;28;20048;-76
2022/06/01 10:32:30;;;;;;;6.82;2.10;;;;;;;20.56;39.68;101275.78;10469834;28;20064;-76
2022/06/01 10:37:36;;;;;;;3.92;2.95;;;;;;;20.82;41.36;101277.91;10493785;28;20040;-75
2022/06/01 10:48:27;;;;;;;9.63;2.53;;;;;;;19.94;45.47;101277.56;10472041;28;20044;-76
2022/06/01 10:53:28;;;;;;;2.33;1.17;;;;;;;21.96;38.69;101272.75;10488078;28;20063;-76
2022/06/01 10:58:28;;;;;;;4.15;1.70;;;;;;;23.13;38.78;101271.53;10485982;28;20043;-76
2022/06/01 11:03:40;;;;;;;2.72;1.83;;;;;;;20.98;37.44;101282.53;10469041;28;20032;-76
2022/06/01 11:09:16;;;;;;;5.18;2.20;;;;;;;21.93;38.75;101274.53;10467682;28;20119;-76
2022/06/01 11:14:22;;;;;;;5.43;2.17;;;;;;;21.11;40.17;101280.00;10489883;28;20040;-75
2022/06/01 11:19:32;;;;;;;2.78;1.63;;;;;;;18.55;42.48;101289.09;10498137;28;20037;-75
2022/06/01 11:24:43;;;;;;;3.75;1.85;;;;;;;17.30;45.19;101291.41;10523985;28;20052;-74
2022/06/01 11:29:53;;;;;;;3.45;1.40;;;;;;;17.66;46.22;101312.59;10524677;28;20044;-74
2022/06/01 11:35:09;;;;;;;2.88;1.30;;;;;;;20.77;40.35;101287.56;10525203;28;20040;-75
2022/06/01 11:40:13;;;;;;;5.35;2.28;;;;;;;23.28;36.56;101299.19;10526287;28;20729;-76
2022/06/01 11:45:34;;;;;;;3.97;1.88;;;;;;;26.17;32.92;101295.38;10508832;28;20028;-75
2022/06/01 11:50:48;;;;;;;7.03;3.47;;;;;;;22.54;38.32;101315.81;10508471;28;20494;-75
2022/06/01 11:55:49;;;;;;;5.68;3.45;;;;;;;21.20;41.25;101322.69;10525858;28;20067;-75
2022/06/01 12:00:51;;;;;;;4.90;4.45;;;;;;;18.43;47.84;101340.09;10507335;28;20477;-75
2022/06/01 12:06:12;;;;;;;7.55;4.50;;;;;;;16.22;55.46;101359.56;10508004;28;20102;-77
2022/06/01 12:11:34;;;;;;;9.73;6.35;;;;;;;16.12;57.29;101355.75;10525452;28;20028;-77
2022/06/01 12:16:35;;;;;;;;;;;;;;;16.01;58.79;101381.78;10510561;28;20073;-76
2022/06/01 12:21:53;;;;;;;7.40;6.63;;;;;;;15.25;62.37;101387.91;10523456;28;20496;-75
2022/06/01 12:32:58;;;;;;;12.32;8.75;;;;;;;13.01;74.03;101396.25;10485910;28;20036;-75
2022/06/01 12:38:03;;;;;;;13.13;8.55;;;;;;;12.19;79.67;101405.47;10522628;28;20127;-76
2022/06/01 12:43:03;;;;;;;13.55;9.35;;;;;;;11.66;81.54;101422.88;10493948;28;20028;-76
2022/06/01 12:48:19;;;;;;;12.50;10.80;;;;;;;11.31;83.80;101412.31;10523821;28;20036;-76
2022/06/01 12:53:25;;;;;;;14.13;11.73;;;;;;;11.36;87.41;101399.47;10505140;28;20032;-76
2022/06/01 12:58:26;;;;;;;11.85;9.75;;;;;;;11.95;88.48;101399.88;10499021;28;20070;-75
2022/06/01 13:03:33;;;;;;;11.77;9.77;;;;;;;12.49;85.57;101392.03;10523440;28;20039;-76
2022/06/01 13:08:37;;;;;;;12.52;9.30;;;;;;;12.69;83.42;101394.72;10523795;28;20048;-76
2022/06/01 13:13:38;;;;;;;11.40;8.65;;;;;;;12.72;82.43;101397.50;10522989;28;20032;-76
2022/06/01 13:18:42;;;;;;;11.13;8.57;;;;;;;12.58;82.32;101397.72;10522832;28;20036;-76
2022/06/01 13:23:59;;;;;;;12.35;9.48;;;;;;;13.15;84.32;101388.09;10495995;28;20036;-76
2022/06/01 13:29:35;;;;;;;12.98;9.35;;;;;;;15.30;79.01;101384.56;10531597;28;20040;-75
2022/06/01 13:34:44;;;;;;;7.85;7.05;;;;;;;18.07;64.14;101388.69;10458482;28;20037;-76
2022/06/01 13:40:08;;;;;;;8.45;7.22;;;;;;;19.00;62.85;101389.06;10448330;28;20060;-76
2022/06/01 13:45:18;;;;;;;9.07;8.18;;;;;;;20.17;60.69;101389.50;10428050;28;20507;-76
2022/06/01 13:50:23;;;;;;;10.65;7.32;;;;;;;18.44;59.13;101393.13;10447141;28;20496;-75
2022/06/01 13:55:28;;;;;;;10.15;7.75;;;;;;;16.70;65.57;101404.25;10430091;28;20055;-75
2022/06/01 14:00:38;;;;;;;9.98;8.02;;;;;;;15.52;69.14;101409.97;10428899;28;20033;-74
2022/06/01 14:05:52;;;;;;;9.18;7.95;;;;;;;15.00;70.18;101415.13;10446837;28;20198;-75
2022/06/01 14:10:52;;;;;;;11.15;9.07;;;;;;;14.71;73.02;101408.69;10462236;28;20032;-76
2022/06/01 14:15:53;;;;;;;9.85;8.27;;;;;;;14.77;75.44;101411.56;10494838;28;20438;-75
2022/06/01 14:20:54;;;;;;;8.93;6.93;;;;;;;15.01;68.98;101409.00;10469298;28;20060;-75
2022/06/01 14:31:15;;;;;;;8.02;6.75;;;;;;;15.90;67.86;101402.56;10490651;28;20033;-75
2022/06/01 14:36:16;;;;;;;10.52;6.95;;;;;;;16.89;66.59;101399.50;10485701;28;20054;-75
2022/06/01 14:41:32;;;;;;;5.75;3.90;;;;;;;18.05;61.06;101386.91;10487321;28;20442;-75
2022/06/01 14:46:33;;;;;;;6.72;4.22;;;;;;;17.86;55.79;101382.84;10487178;28;20438;-74
2022/06/01 14:51:40;;;;;;;5.88;4.40;;;;;;;17.16;59.02;101394.19;10450033;28;20045;-74
2022/06/01 14:56:40;;;;;;;6.18;4.88;;;;;;;17.67;56.30;101392.06;10468008;28;20500;-75
2022/06/01 15:01:51;;;;;;;5.40;4.15;;;;;;;17.58;56.84;101398.00;10471214;28;20120;-74
2022/06/01 15:06:51;;;;;;;6.15;4.95;;;;;;;17.54;55.80;101404.03;10483548;28;20515;-74
2022/06/01 15:11:52;;;;;;;4.10;3.00;;;;;;;17.42;53.57;101415.22;10511201;28;20120;-74
2022/06/01 15:16:58;;;;;;;5.93;2.60;;;;;;;17.64;54.85;101413.16;10446337;28;20132;-74
2022/06/01 15:21:59;;;;;;;3.60;1.90;;;;;;;17.90;52.14;101418.25;10425990;28;20037;-75
2022/06/01 15:27:00;;;;;;;3.75;2.08;;;;;;;17.48;52.48;101417.09;10485560;28;20093;-75
2022/06/01 15:42:39;;;;;;;2.50;1.88;;;;;;;16.35;55.21;101443.63;10433551;28;20123;-75
2022/06/01 15:47:39;;;;;;;5.22;3.08;;;;;;;16.18;55.85;101439.53;10483771;28;20037;-76
2022/06/01 15:52:40;;;;;;;6.03;4.07;;;;;;;16.13;55.96;101435.00;10478291;28;20056;-75
2022/06/01 15:57:40;;;;;;;4.65;2.15;;;;;;;16.51;55.69;101434.50;10456807;28;20050;-74
2022/06/01 16:02:41;;;;;;;4.20;2.50;;;;;;;16.58;52.83;101449.69;10474809;28;20119;-74
2022/06/01 16:07:43;;;;;;;4.57;2.42;;;;;;;16.42;53.17;101439.47;10463966;28;20047;-75
2022/06/01 16:12:43;;;;;;;3.85;2.33;;;;;;;15.91;53.43;101448.31;10447876;28;20040;-75
2022/06/01 16:17:48;;;;;;;5.53;3.78;;;;;;;15.67;56.22;101449.19;10480026;28;20047;-75
2022/06/01 16:22:48;;;;;;;5.47;2.20;;;;;;;15.93;56.01;101441.34;10465516;28;20384;-75
2022/06/01 16:27:51;;;;;;;5.05;2.72;;;;;;;16.28;53.85;101442.56;10464892;28;20048;-75
2022/06/01 16:32:52;;;;;;;5.00;2.90;;;;;;;15.96;53.31;101445.00;10463007;28;20037;-75
2022/06/01 16:37:52;;;;;;;9.10;5.13;;;;;;;16.10;53.28;101440.16;10489680;28;20060;-73
2022/06/01 16:42:54;;;;;;;6.10;3.53;;;;;;;16.45;52.65;101439.56;10478211;28;20036;-74
2022/06/01 16:47:55;;;;;;;7.88;3.00;;;;;;;16.47;53.63;101440.53;10465500;28;20047;-74
2022/06/01 16:52:55;;;;;;;4.15;2.70;;;;;;;16.14;53.67;101444.72;10474044;28;20083;-75
2022/06/01 16:57:56;;;;;;;3.72;2.50;;;;;;;15.76;53.05;101453.91;10515692;28;20029;-74
2022/06/01 17:02:57;;;;;;;8.55;2.25;;;;;;;15.53;54.02;101453.97;10490212;28;20061;-76
2022/06/01 17:07:57;;;;;;;6.93;3.92;;;;;;;15.18;54.59;101451.81;10479421;28;20040;-76
2022/06/01 17:12:58;;;;;;;5.57;2.70;;;;;;;14.94;54.90;101450.03;10486620;28;20060;-75
2022/06/01 17:17:59;;;;;;;5.90;3.10;;;;;;;14.74;56.08;101459.78;10486231;28;20549;-74
2022/06/01 17:23:00;;;;;;;6.63;3.87;;;;;;;14.50;56.90;101457.94;10489100;28;20395;-74
2022/06/01 17:28:01;;;;;;;5.78;3.25;;;;;;;14.60;57.60;101466.22;10497569;28;20278;-74
2022/06/01 17:33:02;;;;;;;5.70;2.60;;;;;;;14.57;57.74;101472.22;10497661;28;20037;-74
2022/06/01 17:38:04;;;;;;;5.20;2.92;;;;;;;14.66;57.83;101467.34;10472979;28;20067;-74
2022/06/01 17:43:04;;;;;;;4.90;2.58;;;;;;;14.60;57.02;101480.25;10430121;28;20065;-74
2022/06/01 17:48:15;;;;;;;4.28;2.53;;;;;;;14.50;57.45;101476.38;10482011;28;20040;-74
2022/06/01 17:53:15;;;;;;;4.40;2.92;;;;;;;14.37;56.65;101479.31;10479320;28;20042;-73
2022/06/01 17:58:16;;;;;;;3.67;1.85;;;;;;;14.32;55.03;101492.28;10490611;28;20485;-74
2022/06/01 18:03:17;;;;;;;3.67;1.70;;;;;;;14.16;54.02;101495.09;10471191;28;20129;-74
2022/06/01 18:08:25;;;;;;;3.08;1.33;;;;;;;13.91;55.72;101502.84;10486752;28;20040;-74
2022/06/01 18:13:26;;;;;;;8.68;2.95;;;;;;;13.68;54.93;101512.31;10500167;28;20404;-75
2022/06/01 18:18:27;;;;;;;3.95;1.83;;;;;;;13.49;56.07;101514.09;10482946;28;20048;-75
2022/06/01 18:23:28;;;;;;;15.43;3.08;;;;;;;13.26;56.21;101520.00;10486001;28;20440;-75
2022/06/01 18:28:30;;;;;;;5.90;1.80;;;;;;;13.11;56.16;101525.44;10487682;28;20028;-75
2022/06/01 18:33:31;;;;;;;3.72;1.95;;;;;;;12.95;56.56;101527.31;10486191;28;20619;-75
2022/06/01 18:38:31;;;;;;;6.07;3.03;;;;;;;12.90;58.16;101529.72;10514776;28;20089;-75
2022/06/01 18:43:32;;;;;;;3.60;1.83;;;;;;;12.74;58.41;101538.59;10519306;28;20051;-75
2022/06/01 18:48:33;;;;;;;6.97;4.07;;;;;;;12.61;58.68;101544.03;10498730;28;20481;-74
2022/06/01 18:53:34;;;;;;;8.10;2.95;;;;;;;12.38;59.91;101542.88;10511064;28;20047;-75
2022/06/01 18:58:34;;;;;;;5.38;3.80;;;;;;;12.22;59.59;101557.81;10492787;28;20041;-75
2022/06/01 19:03:36;;;;;;;5.93;2.80;;;;;;;11.97;61.19;101556.50;10487001;28;20044;-75
2022/06/01 19:08:37;;;;;;;6.63;3.80;;;;;;;11.69;62.72;101568.13;10492145;28;20449;-74
2022/06/01 19:13:37;;;;;;;6.45;3.40;;;;;;;11.55;64.12;101563.88;10493991;28;20100;-75
2022/06/01 19:18:38;;;;;;;5.20;3.15;;;;;;;11.34;65.11;101577.59;10521032;28;20491;-74
2022/06/01 19:23:39;;;;;;;8.40;6.10;;;;;;;11.24;66.97;101577.88;10517695;28;20115;-74
2022/06/01 19:28:40;;;;;;;7.32;3.83;;;;;;;11.02;66.63;101590.69;10485264;28;20388;-75
2022/06/01 19:33:43;;;;;;;8.23;5.07;;;;;;;10.71;68.92;101593.22;10449402;28;20064;-75
2022/06/01 19:44:06;;;;;;;8.57;5.38;;;;;;;10.30;70.68;101613.47;10501547;28;20424;-76
2022/06/01 19:49:08;;;;;;;10.18;6.28;;;;;;;10.13;71.34;101622.88;10487307;28;20084;-75
2022/06/01 19:54:08;;;;;;;6.35;4.22;;;;;;;10.03;71.55;101628.38;10524016;28;20123;-74
2022/06/01 19:59:09;;;;;;;10.13;5.15;;;;;;;9.76;72.76;101631.97;10521363;28;20423;-75
2022/06/01 20:04:10;;;;;;;7.05;5.10;;;;;;;9.48;74.20;101656.34;10484895;28;20485;-75
2022/06/01 20:09:11;;;;;;;12.15;6.35;;;;;;;9.16;75.64;101657.75;10483130;28;20123;-75
2022/06/01 20:14:11;;;;;;;8.52;6.35;;;;;;;8.87;77.03;101663.63;10507926;28;20050;-75
2022/06/01 20:19:12;;;;;;;8.88;5.47;;;;;;;8.65;78.39;101668.31;10508255;28;20185;-75
2022/06/01 20:24:13;;;;;;;9.52;5.38;;;;;;;8.52;82.28;101673.50;10424982;28;20036;-75
2022/06/01 20:29:13;;;;;;;7.53;4.97;;;;;;;8.37;83.80;101678.50;10434094;28;20047;-75
2022/06/01 20:34:14;;;;;;;16.35;7.75;;;;;;;8.19;85.21;101689.47;10539181;28;20115;-75
2022/06/01 20:39:15;;;;;;;11.77;7.40;;;;;;;8.07;85.49;101681.69;10491535;28;20059;-76
2022/06/01 20:44:16;;;;;;;13.67;8.83;;;;;;;7.93;85.16;101696.34;10518071;28;20404;-74
2022/06/01 20:49:17;;;;;;;12.25;8.38;;;;;;;7.78;86.83;101700.44;10539406;28;20075;-77
2022/06/01 20:54:18;;;;;;;11.82;7.03;;;;;;;7.66;87.44;101700.47;10488404;28;20060;-74
2022/06/01 20:59:18;;;;;;;8.13;5.28;;;;;;;7.54;87.23;101705.69;10495493;28;20064;-75
2022/06/01 21:04:19;;;;;;;10.05;5.93;;;;;;;7.38;88.01;101708.88;10529211;28;20040;-74
2022/06/01 21:09:19;;;;;;;13.63;6.97;;;;;;;7.27;88.51;101713.25;10502989;28;20045;-75
2022/06/01 21:14:21;;;;;;;10.48;6.35;;;;;;;7.14;89.20;101713.13;10531025;28;20067;-74
2022/06/01 21:19:22;;;;;;;8.13;5.43;;;;;;;7.07;89.43;101717.00;10535579;28;20041;-74
2022/06/01 21:24:22;;;;;;;8.93;6.00;;;;;;;6.89;90.09;101721.69;10503160;28;20060;-74
2022/06/01 21:29:23;;;;;;;9.18;7.05;;;;;;;6.71;89.68;101729.00;10496228;28;20123;-74
2022/06/01 21:34:23;;;;;;;12.13;6.32;;;;;;;6.59;90.40;101732.47;10518976;28;20128;-74
2022/06/01 21:39:25;;;;;;;6.53;4.75;;;;;;;6.42;90.85;101728.53;10495632;28;20040;-75
2022/06/01 21:44:25;;;;;;;12.88;7.93;;;;;;;6.31;91.55;101727.72;10504972;28;20453;-75
2022/06/01 21:49:26;;;;;;;11.20;7.75;;;;;;;6.32;92.56;101729.53;10532808;28;20089;-74
2022/06/01 21:54:27;;;;;;;12.15;7.88;;;;;;;6.22;92.67;101734.78;10496382;28;20040;-74
2022/06/01 21:59:27;;;;;;;13.40;8.32;;;;;;;6.16;93.42;101735.19;10488248;28;20120;-73
2022/06/01 22:04:28;;;;;;;14.55;8.73;;;;;;;6.11;93.54;101730.44;10522409;28;20044;-74
2022/06/01 22:09:28;;;;;;;11.68;9.30;;;;;;;6.02;93.83;101735.78;10531064;28;20051;-74
2022/06/01 22:14:29;;;;;;;13.55;8.90;;;;;;;5.84;93.91;101735.19;10497909;28;20089;-74
2022/06/01 22:19:29;;;;;;;15.57;10.18;;;;;;;5.72;94.31;101738.63;10471199;28;20032;-75
2022/06/01 22:24:30;;;;;;;16.33;10.50;;;;;;;5.68;95.08;101748.63;10516267;28;20119;-74
2022/06/01 22:29:32;;;;;;;21.25;12.50;;;;;;;5.65;95.56;101753.56;10491332;28;20041;-75
2022/06/01 22:37:14;;;;;;;18.00;12.13;;;;;;;5.64;96.62;101754.34;10513917;28;20040;-74
2022/06/01 22:39:56;;;;;;;16.60;11.40;;;;;;;5.58;96.89;101749.56;10491861;28;20032;-74
2022/06/01 22:44:58;;;;;;;16.20;11.35;;;;;;;5.51;97.26;101752.44;10437596;28;20501;-74
2022/06/01 22:50:06;;;;;;;20.85;12.27;;;;;;;5.36;96.56;101755.59;10445176;28;20033;-75
2022/06/01 22:55:07;;;;;;;16.70;10.90;;;;;;;5.20;96.09;101762.88;10486100;28;20046;-74
2022/06/01 23:00:09;;;;;;;17.40;12.23;;;;;;;5.08;96.16;101767.94;10469515;28;20055;-74
2022/06/01 23:05:10;;;;;;;21.42;11.98;;;;;;;5.03;96.80;101761.44;10498383;28;20067;-75
2022/06/01 23:10:11;;;;;;;19.13;12.77;;;;;;;4.95;96.90;101771.19;10526552;28;20036;-74
2022/06/01 23:15:12;;;;;;;15.80;10.30;;;;;;;4.85;96.85;101773.00;10456691;28;20041;-74
2022/06/01 23:20:33;;;;;;;20.20;13.98;;;;;;;4.84;97.21;101786.75;10426842;28;20397;-73
2022/06/01 23:25:34;;;;;;;23.40;15.13;;;;;;;4.97;97.95;101786.09;10506044;28;20059;-73
2022/06/01 23:30:56;;;;;;;27.38;16.83;;;;;;;4.90;98.37;101786.34;10487536;28;20111;-74
2022/06/01 23:36:28;;;;;;;21.92;16.35;;;;;;;4.81;99.15;101786.50;10491443;28;20109;-74
2022/06/01 23:42:05;;;;;;;21.73;15.43;;;;;;;4.75;99.28;101780.78;10478200;28;20040;-74
2022/06/01 23:47:44;;;;;;;22.52;16.63;;;;;;;4.65;99.31;101784.25;10462460;28;20058;-75
2022/06/01 23:53:19;;;;;;;24.90;19.17;;;;;;;4.53;99.28;101789.28;10470912;28;20051;-75
2022/06/01 23:59:02;;;;;;;23.77;16.55;;;;;;;4.34;99.38;101789.34;10435820;28;20119;-74
